createdAt,value
2022-11-07T00:00:33.548Z,19.03
2022-11-07T00:03:01.969Z,17.80
2022-11-07T00:05:30.840Z,29.00
2022-11-07T00:07:59.200Z,22.37
2022-11-07T00:10:28.978Z,17.77
2022-11-07T00:12:57.820Z,19.50
2022-11-07T00:15:26.160Z,19.07
2022-11-07T00:17:55.381Z,17.67
2022-11-07T00:20:23.800Z,15.47
2022-11-07T00:22:52.170Z,16.63
2022-11-07T00:25:21.529Z,16.93
2022-11-07T00:27:51.270Z,16.17
2022-11-07T00:30:20.720Z,14.43
2022-11-07T00:32:49.118Z,12.88
2022-11-07T00:35:18.476Z,14.37
2022-11-07T00:37:47.320Z,12.47
2022-11-07T00:40:15.741Z,12.53
2022-11-07T00:42:45.341Z,12.67
2022-11-07T00:45:15.124Z,12.83
2022-11-07T00:47:44.330Z,14.97
2022-11-07T00:50:12.743Z,14.93
2022-11-07T00:52:41.779Z,15.27
2022-11-07T00:55:11.113Z,12.73
2022-11-07T00:57:39.561Z,11.30
2022-11-07T01:00:09.999Z,9.40
2022-11-07T01:02:40.845Z,9.80
2022-11-07T01:05:13.187Z,9.33
2022-11-07T01:07:42.310Z,8.77
2022-11-07T01:10:11.135Z,7.07
2022-11-07T01:12:39.512Z,6.13
2022-11-07T01:15:09.336Z,8.40
2022-11-07T01:17:37.749Z,7.50
2022-11-07T01:20:09.201Z,6.93
2022-11-07T01:22:38.110Z,5.33
2022-11-07T01:25:06.947Z,6.82
2022-11-07T01:27:35.827Z,7.13
2022-11-07T01:30:04.587Z,5.00
2022-11-07T01:32:33.335Z,4.73
2022-11-07T01:35:01.796Z,5.13
2022-11-07T01:37:32.547Z,6.50
2022-11-07T01:40:01.406Z,6.77
2022-11-07T01:42:30.334Z,5.50
2022-11-07T01:45:00.850Z,5.90
2022-11-07T01:47:33.159Z,4.97
2022-11-07T01:50:02.125Z,5.57
2022-11-07T01:52:36.554Z,7.60
2022-11-07T01:55:10.482Z,7.28
2022-11-07T01:57:43.701Z,3.80
2022-11-07T02:00:16.709Z,3.40
2022-11-07T02:02:49.592Z,4.18
2022-11-07T02:05:23.753Z,4.50
2022-11-07T02:07:54.137Z,3.53
2022-11-07T02:10:23.548Z,4.67
2022-11-07T02:12:52.575Z,4.07
2022-11-07T02:15:21.518Z,3.47
2022-11-07T02:17:50.629Z,2.83
2022-11-07T02:20:19.562Z,3.40
2022-11-07T02:22:54.463Z,3.93
2022-11-07T02:25:25.517Z,3.83
2022-11-07T02:27:58.018Z,2.75
2022-11-07T02:30:30.282Z,3.53
2022-11-07T02:32:58.782Z,3.40
2022-11-07T02:35:38.423Z,3.45
2022-11-07T02:38:11.145Z,4.65
2022-11-07T02:40:41.501Z,4.00
2022-11-07T02:43:12.095Z,34.08
2022-11-07T02:45:45.165Z,14.80
2022-11-07T02:48:14.674Z,3.53
2022-11-07T02:50:43.811Z,4.57
2022-11-07T02:53:13.286Z,4.20
2022-11-07T02:55:43.254Z,3.43
2022-11-07T02:58:12.069Z,2.70
2022-11-07T03:00:40.918Z,3.47
2022-11-07T03:03:09.376Z,4.40
2022-11-07T03:05:38.421Z,3.53
2022-11-07T03:08:06.940Z,3.10
2022-11-07T03:10:36.398Z,3.97
2022-11-07T03:13:06.653Z,2.30
2022-11-07T03:15:35.547Z,4.65
2022-11-07T03:18:04.444Z,3.80
2022-11-07T03:20:32.868Z,3.75
2022-11-07T03:23:01.569Z,3.53
2022-11-07T03:25:29.960Z,2.63
2022-11-07T03:27:59.144Z,3.60
2022-11-07T03:30:29.525Z,3.33
2022-11-07T03:32:58.629Z,6.45
2022-11-07T03:35:28.123Z,3.70
2022-11-07T03:37:57.493Z,3.47
2022-11-07T03:40:26.511Z,2.47
2022-11-07T03:42:54.921Z,3.22
2022-11-07T03:45:24.386Z,3.00
2022-11-07T03:47:54.076Z,4.03
2022-11-07T03:50:23.834Z,2.38
2022-11-07T03:52:52.810Z,2.17
2022-11-07T03:55:21.166Z,3.10
2022-11-07T03:57:50.564Z,2.53
2022-11-07T04:00:19.838Z,3.07
2022-11-07T04:02:48.306Z,2.63
2022-11-07T04:05:19.161Z,2.60
2022-11-07T04:07:47.508Z,3.53
2022-11-07T04:10:16.465Z,3.03
2022-11-07T04:13:03.853Z,4.67
2022-11-07T04:15:49.666Z,2.93
2022-11-07T04:18:18.406Z,3.67
2022-11-07T04:20:48.094Z,2.90
2022-11-07T04:23:17.229Z,2.83
2022-11-07T04:26:04.174Z,3.00
2022-11-07T04:28:32.621Z,7.25
2022-11-07T04:31:01.048Z,3.73
2022-11-07T04:33:29.497Z,4.23
2022-11-07T04:35:59.584Z,3.10
2022-11-07T04:38:28.454Z,3.43
2022-11-07T04:40:58.112Z,2.60
2022-11-07T04:43:28.510Z,2.67
2022-11-07T04:45:57.878Z,4.03
2022-11-07T04:48:27.436Z,2.33
2022-11-07T04:50:56.943Z,3.83
2022-11-07T04:53:27.077Z,4.43
2022-11-07T04:55:55.453Z,3.03
2022-11-07T04:58:24.255Z,2.85
2022-11-07T05:00:52.662Z,3.97
2022-11-07T05:03:21.529Z,3.93
2022-11-07T05:05:50.023Z,29.00
2022-11-07T05:08:18.899Z,17.67
2022-11-07T05:10:48.605Z,4.13
2022-11-07T05:13:18.940Z,5.33
2022-11-07T05:15:47.355Z,4.73
2022-11-07T05:18:15.746Z,4.77
2022-11-07T05:20:44.477Z,4.40
2022-11-07T05:23:15.859Z,2.93
2022-11-07T05:25:47.001Z,3.07
2022-11-07T05:28:22.079Z,2.67
2022-11-07T05:30:55.206Z,5.33
2022-11-07T05:33:24.088Z,2.60
2022-11-07T05:35:52.474Z,4.17
2022-11-07T05:38:21.915Z,5.80
2022-11-07T05:40:50.638Z,4.37
2022-11-07T05:43:20.847Z,2.90
2022-11-07T05:45:49.274Z,4.20
2022-11-07T05:48:18.756Z,5.77
2022-11-07T05:50:47.114Z,4.33
2022-11-07T05:53:16.293Z,3.37
2022-11-07T05:55:45.301Z,2.77
2022-11-07T05:58:14.270Z,4.13
2022-11-07T06:00:44.334Z,4.70
2022-11-07T06:03:14.411Z,4.00
2022-11-07T06:05:44.533Z,4.23
2022-11-07T06:08:14.622Z,3.20
2022-11-07T06:10:44.536Z,3.93
2022-11-07T06:13:16.541Z,4.63
2022-11-07T06:15:46.964Z,7.07
2022-11-07T06:18:17.585Z,4.70
2022-11-07T06:20:46.852Z,3.07
2022-11-07T06:23:15.654Z,4.27
2022-11-07T06:25:44.398Z,5.07
2022-11-07T06:28:14.449Z,3.07
2022-11-07T06:30:43.214Z,4.57
2022-11-07T06:33:15.994Z,5.27
2022-11-07T06:35:45.181Z,4.63
2022-11-07T06:38:15.354Z,4.37
2022-11-07T06:40:44.333Z,6.80
2022-11-07T06:43:15.487Z,6.07
2022-11-07T06:45:45.277Z,6.20
2022-11-07T06:48:15.290Z,5.90
2022-11-07T06:50:43.705Z,7.23
2022-11-07T06:53:14.808Z,4.13
2022-11-07T06:55:43.511Z,6.20
2022-11-07T06:58:11.941Z,6.60
2022-11-07T07:00:40.412Z,4.47
2022-11-07T07:03:08.913Z,5.23
2022-11-07T07:05:38.730Z,7.83
2022-11-07T07:08:08.570Z,6.10
2022-11-07T07:10:39.347Z,8.13
2022-11-07T07:13:08.045Z,6.23
2022-11-07T07:15:49.925Z,2.93
2022-11-07T07:18:20.082Z,5.60
2022-11-07T07:20:50.562Z,5.87
2022-11-07T07:23:20.985Z,7.47
2022-11-07T07:25:49.773Z,8.97
2022-11-07T07:28:18.144Z,8.57
2022-11-07T07:30:51.607Z,5.95
2022-11-07T07:33:20.695Z,6.80
2022-11-07T07:35:50.456Z,7.30
2022-11-07T07:38:18.895Z,6.57
2022-11-07T07:40:47.271Z,5.40
2022-11-07T07:43:16.117Z,4.90
2022-11-07T07:45:44.801Z,5.60
2022-11-07T07:48:13.185Z,6.72
2022-11-07T07:50:41.628Z,4.73
2022-11-07T07:53:11.326Z,3.00
2022-11-07T07:55:39.687Z,4.43
2022-11-07T07:58:08.215Z,5.40
2022-11-07T08:00:36.720Z,5.03
2022-11-07T08:03:06.598Z,5.87
2022-11-07T08:05:35.100Z,7.80
2022-11-07T08:08:03.641Z,12.20
2022-11-07T08:10:42.735Z,8.10
2022-11-07T08:13:12.032Z,7.17
2022-11-07T08:15:40.470Z,7.00
2022-11-07T08:18:08.829Z,10.13
2022-11-07T08:20:37.260Z,8.05
2022-11-07T08:23:11.264Z,6.10
2022-11-07T08:25:50.981Z,4.88
2022-11-07T08:28:20.804Z,3.85
2022-11-07T08:30:56.296Z,4.75
2022-11-07T08:33:24.799Z,4.47
2022-11-07T08:35:55.296Z,5.78
2022-11-07T08:38:24.050Z,3.03
2022-11-07T08:40:54.237Z,4.65
2022-11-07T08:43:22.711Z,4.55
2022-11-07T08:45:51.248Z,6.57
2022-11-07T08:48:19.772Z,3.63
2022-11-07T08:50:52.008Z,4.10
2022-11-07T08:53:20.893Z,3.55
2022-11-07T08:55:49.585Z,2.88
2022-11-07T08:58:20.191Z,4.50
2022-11-07T09:00:48.602Z,3.47
2022-11-07T09:03:43.526Z,2.10
2022-11-07T09:06:05.858Z,1.98
2022-11-07T09:08:34.408Z,2.85
2022-11-07T09:11:03.971Z,2.88
2022-11-07T09:13:35.095Z,2.60
2022-11-07T09:16:06.042Z,3.10
2022-11-07T09:18:34.979Z,2.85
2022-11-07T09:21:03.392Z,2.35
2022-11-07T09:23:32.769Z,3.28
2022-11-07T09:26:01.738Z,1.27
2022-11-07T09:28:30.747Z,2.78
2022-11-07T09:31:02.668Z,2.53
2022-11-07T09:33:31.942Z,4.32
2022-11-07T09:36:00.886Z,4.55
2022-11-07T09:38:29.778Z,2.83
2022-11-07T09:41:05.533Z,1.98
2022-11-07T09:43:49.033Z,3.67
2022-11-07T09:46:28.309Z,3.53
2022-11-07T09:49:02.517Z,3.58
2022-11-07T09:51:36.774Z,2.53
2022-11-07T09:54:09.660Z,2.35
2022-11-07T09:56:38.209Z,3.50
2022-11-07T09:59:14.198Z,1.88
2022-11-07T10:01:44.428Z,3.83
2022-11-07T10:04:24.835Z,2.88
2022-11-07T10:06:59.894Z,3.38
2022-11-07T10:09:39.359Z,1.77
2022-11-07T10:12:18.281Z,2.22
2022-11-07T10:14:55.326Z,3.00
2022-11-07T10:17:37.235Z,3.33
2022-11-07T10:20:24.310Z,3.72
2022-11-07T10:23:05.006Z,2.53
2022-11-07T10:25:42.350Z,3.45
2022-11-07T10:28:15.907Z,5.25
2022-11-07T10:30:47.284Z,3.83
2022-11-07T10:33:26.585Z,2.22
2022-11-07T10:35:58.874Z,3.60
2022-11-07T10:38:29.202Z,3.15
2022-11-07T10:40:58.033Z,2.55
2022-11-07T10:43:34.097Z,2.42
2022-11-07T10:46:05.139Z,1.20
2022-11-07T10:48:35.878Z,2.92
2022-11-07T10:51:04.804Z,4.65
2022-11-07T10:53:33.294Z,4.38
2022-11-07T10:56:02.284Z,3.40
2022-11-07T10:58:36.699Z,3.05
2022-11-07T11:01:08.273Z,3.47
2022-11-07T11:03:44.956Z,2.17
2022-11-07T11:06:23.674Z,3.17
2022-11-07T11:08:53.569Z,2.78
2022-11-07T11:11:31.943Z,2.45
2022-11-07T11:14:06.636Z,4.53
2022-11-07T11:16:38.664Z,4.82
2022-11-07T11:19:19.863Z,3.78
2022-11-07T11:21:51.846Z,2.95
2022-11-07T11:24:35.672Z,3.15
2022-11-07T11:27:14.435Z,4.45
2022-11-07T11:29:51.838Z,1.77
2022-11-07T11:32:28.407Z,2.55
2022-11-07T11:35:07.105Z,2.92
2022-11-07T11:37:39.802Z,1.20
2022-11-07T11:40:15.991Z,3.08
2022-11-07T11:42:50.392Z,3.35
2022-11-07T11:45:22.792Z,2.95
2022-11-07T11:48:00.254Z,3.08
2022-11-07T11:50:42.833Z,3.22
2022-11-07T11:53:17.341Z,2.00
2022-11-07T11:55:59.214Z,1.98
2022-11-07T11:58:41.967Z,2.58
2022-11-07T12:01:20.067Z,4.13
2022-11-07T12:04:14.905Z,2.22
2022-11-07T12:06:47.062Z,2.47
2022-11-07T12:09:24.771Z,1.40
2022-11-07T12:12:03.094Z,2.28
2022-11-07T12:15:05.893Z,3.42
2022-11-07T12:17:41.688Z,2.35
2022-11-07T12:20:20.696Z,1.98
2022-11-07T12:23:00.479Z,2.05
2022-11-07T12:25:31.968Z,3.08
2022-11-07T12:28:11.702Z,2.20
2022-11-07T12:30:51.481Z,2.83
2022-11-07T12:33:31.169Z,2.50
2022-11-07T12:36:04.010Z,2.03
2022-11-07T12:39:02.907Z,1.88
2022-11-07T12:41:41.664Z,3.72
2022-11-07T12:44:27.954Z,2.80
2022-11-07T12:46:59.822Z,2.45
2022-11-07T12:49:44.454Z,6.05
2022-11-07T12:52:28.253Z,3.80
2022-11-07T12:55:01.709Z,4.53
2022-11-07T12:57:33.559Z,3.72
2022-11-07T13:00:06.996Z,3.00
2022-11-07T13:02:50.708Z,3.10
2022-11-07T13:05:35.260Z,2.13
2022-11-07T13:08:11.783Z,2.95
2022-11-07T13:10:52.843Z,2.75
2022-11-07T13:13:27.691Z,3.38
2022-11-07T13:16:24.268Z,1.65
2022-11-07T13:18:44.922Z,2.85
2022-11-07T13:21:13.437Z,2.67
2022-11-07T13:23:41.899Z,3.15
2022-11-07T13:26:44.595Z,3.78
2022-11-07T13:29:02.488Z,2.03
2022-11-07T13:31:34.178Z,1.80
2022-11-07T13:34:24.150Z,2.88
2022-11-07T13:37:00.790Z,2.70
2022-11-07T13:39:30.932Z,2.00
2022-11-07T13:42:02.334Z,2.53
2022-11-07T13:44:36.643Z,2.40
2022-11-07T13:47:11.360Z,4.60
2022-11-07T13:49:44.878Z,2.05
2022-11-07T13:52:22.061Z,2.38
2022-11-07T13:54:55.314Z,2.28
2022-11-07T13:57:29.444Z,2.15
2022-11-07T14:00:05.134Z,1.80
2022-11-07T14:02:42.982Z,2.85
2022-11-07T14:05:17.902Z,2.33
2022-11-07T14:07:50.509Z,4.40
2022-11-07T14:10:24.908Z,1.85
2022-11-07T14:13:08.038Z,3.13
2022-11-07T14:15:37.494Z,2.72
2022-11-07T14:18:07.638Z,3.92
2022-11-07T14:20:36.017Z,1.42
2022-11-07T14:23:04.419Z,3.17
2022-11-07T14:25:35.403Z,4.53
2022-11-07T14:28:08.516Z,2.33
2022-11-07T14:30:42.249Z,2.90
2022-11-07T14:33:18.674Z,1.40
2022-11-07T14:35:50.111Z,1.90
2022-11-07T14:38:22.826Z,1.77
2022-11-07T14:40:52.093Z,3.38
2022-11-07T14:43:24.518Z,3.85
2022-11-07T14:46:12.471Z,2.55
2022-11-07T14:48:43.758Z,3.53
2022-11-07T14:51:14.651Z,3.17
2022-11-07T14:53:51.217Z,2.75
2022-11-07T14:56:24.237Z,4.30
2022-11-07T14:58:54.738Z,4.05
2022-11-07T15:01:27.786Z,4.03
2022-11-07T15:03:59.213Z,2.55
2022-11-07T15:06:34.227Z,3.10
2022-11-07T15:09:05.835Z,1.73
2022-11-07T15:11:35.990Z,2.47
2022-11-07T15:14:22.278Z,3.58
2022-11-07T15:16:52.178Z,3.70
2022-11-07T15:19:23.731Z,1.40
2022-11-07T15:21:54.456Z,2.70
2022-11-07T15:24:33.530Z,2.08
2022-11-07T15:27:03.227Z,3.20
2022-11-07T15:29:36.431Z,2.22
2022-11-07T15:32:14.228Z,3.58
2022-11-07T15:35:03.902Z,3.13
2022-11-07T15:37:31.937Z,2.80
2022-11-07T15:40:00.375Z,2.25
2022-11-07T15:42:28.889Z,3.03
2022-11-07T15:44:59.005Z,4.32
2022-11-07T15:47:27.441Z,4.57
2022-11-07T15:49:57.109Z,2.85
2022-11-07T15:52:25.937Z,3.00
2022-11-07T15:54:54.343Z,2.67
2022-11-07T15:57:23.075Z,1.92
2022-11-07T15:59:51.501Z,2.75
2022-11-07T16:02:21.306Z,1.60
2022-11-07T16:04:50.653Z,1.95
2022-11-07T16:07:20.894Z,4.65
2022-11-07T16:09:49.994Z,4.20
2022-11-07T16:12:20.749Z,4.10
2022-11-07T16:14:49.602Z,9.20
2022-11-07T16:17:20.075Z,6.05
2022-11-07T16:19:50.551Z,5.15
2022-11-07T16:22:18.948Z,5.03
2022-11-07T16:24:47.313Z,6.18
2022-11-07T16:27:18.778Z,16.27
2022-11-07T16:29:47.430Z,4.55
2022-11-07T16:32:18.625Z,4.65
2022-11-07T16:34:47.903Z,3.60
2022-11-07T16:37:17.655Z,2.95
2022-11-07T16:39:46.359Z,5.38
2022-11-07T16:42:16.522Z,5.55
2022-11-07T16:44:46.963Z,4.68
2022-11-07T16:47:16.239Z,4.05
2022-11-07T16:49:44.703Z,4.72
2022-11-07T16:52:16.016Z,3.05
2022-11-07T16:54:46.290Z,2.67
2022-11-07T16:57:17.182Z,3.83
2022-11-07T16:59:46.750Z,2.75
2022-11-07T17:02:21.655Z,3.83
2022-11-07T17:04:51.916Z,5.43
2022-11-07T17:07:22.519Z,5.55
2022-11-07T17:09:52.912Z,3.95
2022-11-07T17:12:23.062Z,6.60
2022-11-07T17:14:52.663Z,7.43
2022-11-07T17:17:21.452Z,11.05
2022-11-07T17:19:50.079Z,7.90
2022-11-07T17:22:19.336Z,7.60
2022-11-07T17:24:48.179Z,6.45
2022-11-07T17:27:22.829Z,4.07
2022-11-07T17:29:51.830Z,6.20
2022-11-07T17:32:20.660Z,4.00
2022-11-07T17:35:10.611Z,3.03
2022-11-07T17:37:39.832Z,6.03
2022-11-07T17:40:09.136Z,4.45
2022-11-07T17:42:40.018Z,4.63
2022-11-07T17:45:09.846Z,7.18
2022-11-07T17:47:39.287Z,3.35
2022-11-07T17:50:08.624Z,4.70
2022-11-07T17:52:37.305Z,7.78
2022-11-07T17:55:06.962Z,26.60
2022-11-07T17:57:35.413Z,32.75
2022-11-07T18:00:07.674Z,19.42
2022-11-07T18:02:38.255Z,16.38
2022-11-07T18:05:08.008Z,17.30
2022-11-07T18:07:38.798Z,19.75
2022-11-07T18:10:08.421Z,17.63
2022-11-07T18:12:37.490Z,16.42
2022-11-07T18:15:08.634Z,14.13
2022-11-07T18:17:37.467Z,12.57
2022-11-07T18:20:07.254Z,10.77
2022-11-07T18:22:37.159Z,13.45
2022-11-07T18:25:07.714Z,14.25
2022-11-07T18:27:36.998Z,11.48
2022-11-07T18:30:08.651Z,10.82
2022-11-07T18:32:37.170Z,7.90
2022-11-07T18:35:07.007Z,7.47
2022-11-07T18:37:35.748Z,9.35
2022-11-07T18:40:06.115Z,6.75
2022-11-07T18:42:34.565Z,6.57
2022-11-07T18:45:03.670Z,6.60
2022-11-07T18:47:34.318Z,8.90
2022-11-07T18:50:03.817Z,50.05
2022-11-07T18:52:32.964Z,86.72
2022-11-07T18:55:01.332Z,116.93
2022-11-07T18:57:30.688Z,198.77
2022-11-07T18:59:59.070Z,168.82
2022-11-07T19:02:28.617Z,121.20
2022-11-07T19:04:58.469Z,86.30
2022-11-07T19:07:26.879Z,77.60
2022-11-07T19:09:55.734Z,40.22
2022-11-07T19:12:24.475Z,17.05
2022-11-07T19:14:53.269Z,37.33
2022-11-07T19:17:21.658Z,34.42
2022-11-07T19:19:50.054Z,20.08
2022-11-07T19:22:19.826Z,9.40
2022-11-07T19:24:48.970Z,10.07
2022-11-07T19:27:17.700Z,16.35
2022-11-07T19:29:47.243Z,16.80
2022-11-07T19:32:16.004Z,21.27
2022-11-07T19:34:44.461Z,15.13
2022-11-07T19:37:13.119Z,17.88
2022-11-07T19:39:42.846Z,23.40
2022-11-07T19:42:11.787Z,26.92
2022-11-07T19:44:46.325Z,26.48
2022-11-07T19:47:18.148Z,37.15
2022-11-07T19:49:46.559Z,70.45
2022-11-07T19:52:15.445Z,56.40
2022-11-07T19:54:45.507Z,54.30
2022-11-07T19:57:13.872Z,41.80
2022-11-07T19:59:42.548Z,36.65
2022-11-07T20:05:01.623Z,48.25
2022-11-07T20:07:30.595Z,55.65
2022-11-07T20:10:01.294Z,50.88
2022-11-07T20:12:30.175Z,50.55
2022-11-07T20:14:58.713Z,45.50
2022-11-07T20:17:27.942Z,42.05
2022-11-07T20:19:59.926Z,37.05
2022-11-07T20:22:31.294Z,32.05
2022-11-07T20:25:02.091Z,25.20
2022-11-07T20:27:32.162Z,24.98
2022-11-07T20:30:01.459Z,23.77
2022-11-07T20:32:30.386Z,22.58
2022-11-07T20:34:59.309Z,23.77
2022-11-07T20:37:27.850Z,31.17
2022-11-07T20:39:56.352Z,32.50
2022-11-07T20:42:27.201Z,35.90
2022-11-07T20:44:55.809Z,37.42
2022-11-07T20:47:25.123Z,32.03
2022-11-07T20:49:54.536Z,25.08
2022-11-07T20:52:23.114Z,24.42
2022-11-07T20:54:52.486Z,24.02
2022-11-07T20:57:20.954Z,21.00
2022-11-07T20:59:51.774Z,20.38
2022-11-07T21:02:20.294Z,22.38
2022-11-07T21:05:16.265Z,38.03
2022-11-07T21:07:39.278Z,66.70
2022-11-07T21:10:08.156Z,45.58
2022-11-07T21:12:37.822Z,42.88
2022-11-07T21:15:09.252Z,39.28
2022-11-07T21:17:38.180Z,38.20
2022-11-07T21:20:10.561Z,30.05
2022-11-07T21:22:39.254Z,29.17
2022-11-07T21:25:08.754Z,27.80
2022-11-07T21:27:37.862Z,19.92
2022-11-07T21:30:09.738Z,14.20
2022-11-07T21:32:38.596Z,18.50
2022-11-07T21:35:08.615Z,17.67
2022-11-07T21:37:37.221Z,19.13
2022-11-07T21:40:07.694Z,15.27
2022-11-07T21:42:36.244Z,20.50
2022-11-07T21:45:06.525Z,17.55
2022-11-07T21:47:38.849Z,20.45
2022-11-07T21:50:43.106Z,16.70
2022-11-07T21:53:07.340Z,16.10
2022-11-07T21:55:36.518Z,16.08
2022-11-07T21:58:05.129Z,12.90
2022-11-07T22:00:36.518Z,14.68
2022-11-07T22:03:07.471Z,14.25
2022-11-07T22:05:39.256Z,13.15
2022-11-07T22:08:08.470Z,15.13
2022-11-07T22:10:37.700Z,11.45
2022-11-07T22:13:07.871Z,13.23
2022-11-07T22:15:36.988Z,14.52
2022-11-07T22:18:06.938Z,13.23
2022-11-07T22:20:39.405Z,12.45
2022-11-07T22:23:08.010Z,13.70
2022-11-07T22:25:37.116Z,13.23
2022-11-07T22:28:06.149Z,13.32
2022-11-07T22:30:34.616Z,11.35
2022-11-07T22:33:03.929Z,9.10
2022-11-07T22:35:34.267Z,11.23
2022-11-07T22:38:03.705Z,7.38
2022-11-07T22:40:32.214Z,8.05
2022-11-07T22:43:01.486Z,6.00
2022-11-07T22:45:30.366Z,9.75
2022-11-07T22:47:59.172Z,6.57
2022-11-07T22:50:27.569Z,5.43
2022-11-07T22:52:57.804Z,5.57
2022-11-07T22:55:26.714Z,5.10
2022-11-07T22:57:55.402Z,4.95
2022-11-07T23:00:24.025Z,7.33
2022-11-07T23:02:52.423Z,6.63
2022-11-07T23:05:21.498Z,3.90
2022-11-07T23:07:50.872Z,4.87
2022-11-07T23:10:21.544Z,6.80
2022-11-07T23:12:50.840Z,6.38
2022-11-07T23:15:19.697Z,6.70
2022-11-07T23:17:48.511Z,7.40
2022-11-07T23:20:31.067Z,9.93
2022-11-07T23:22:59.774Z,6.45
2022-11-07T23:25:31.188Z,8.57
2022-11-07T23:27:59.573Z,6.25
2022-11-07T23:30:30.655Z,9.10
2022-11-07T23:32:59.618Z,7.43
2022-11-07T23:35:27.961Z,7.83
2022-11-07T23:37:57.280Z,8.40
2022-11-07T23:40:26.106Z,7.77
2022-11-07T23:42:55.892Z,9.35
2022-11-07T23:45:42.602Z,7.77
2022-11-07T23:48:31.597Z,8.50
2022-11-07T23:51:03.603Z,10.00
2022-11-07T23:53:50.808Z,9.53
2022-11-07T23:56:20.272Z,11.70
2022-11-07T23:59:08.836Z,7.70
